createdAt,value
2018-10-21T00:01:43.927Z,7.44
2018-10-21T00:03:56.239Z,7.42
2018-10-21T00:06:08.436Z,7.40
2018-10-21T00:08:20.614Z,7.36
2018-10-21T00:10:32.811Z,7.36
2018-10-21T00:12:45.019Z,7.31
2018-10-21T00:14:57.324Z,7.24
2018-10-21T00:17:09.464Z,7.18
2018-10-21T00:19:21.677Z,7.18
2018-10-21T00:21:33.938Z,7.14
2018-10-21T00:23:46.143Z,7.11
2018-10-21T00:25:58.355Z,7.06
2018-10-21T00:28:10.626Z,6.97
2018-10-21T00:30:22.844Z,6.95
2018-10-21T00:32:40.667Z,6.92
2018-10-21T00:34:52.913Z,6.89
2018-10-21T00:37:05.332Z,6.82
2018-10-21T00:39:17.631Z,6.79
2018-10-21T00:41:29.780Z,6.83
2018-10-21T00:43:42.000Z,6.85
2018-10-21T00:45:54.251Z,6.88
2018-10-21T00:48:06.470Z,6.85
2018-10-21T00:50:18.683Z,6.82
2018-10-21T00:52:30.906Z,6.80
2018-10-21T00:54:43.081Z,6.83
2018-10-21T00:56:55.345Z,6.88
2018-10-21T00:59:08.279Z,6.92
2018-10-21T01:01:20.523Z,6.86
2018-10-21T01:03:32.734Z,6.84
2018-10-21T01:05:44.930Z,6.81
2018-10-21T01:07:57.192Z,6.83
2018-10-21T01:10:10.618Z,6.85
2018-10-21T01:12:22.838Z,6.86
2018-10-21T01:14:35.039Z,6.85
2018-10-21T01:16:47.262Z,6.81
2018-10-21T01:18:59.482Z,6.71
2018-10-21T01:21:11.734Z,6.64
2018-10-21T01:23:23.906Z,6.59
2018-10-21T01:25:36.107Z,6.57
2018-10-21T01:27:48.330Z,6.52
2018-10-21T01:30:00.537Z,6.50
2018-10-21T01:32:16.324Z,6.52
2018-10-21T01:34:28.516Z,6.51
2018-10-21T01:36:40.832Z,6.50
2018-10-21T01:38:53.122Z,6.44
2018-10-21T01:41:05.352Z,6.40
2018-10-21T01:43:28.877Z,6.33
2018-10-21T01:45:41.118Z,6.23
2018-10-21T01:47:53.704Z,6.15
2018-10-21T01:50:05.943Z,6.14
2018-10-21T01:52:18.149Z,6.14
2018-10-21T01:54:30.358Z,6.15
2018-10-21T01:56:42.582Z,6.15
2018-10-21T01:58:54.810Z,6.15
2018-10-21T02:01:07.007Z,6.10
2018-10-21T02:03:19.274Z,6.11
2018-10-21T02:05:32.004Z,6.11
2018-10-21T02:07:44.255Z,6.09
2018-10-21T02:09:56.483Z,6.10
2018-10-21T02:12:08.707Z,6.11
2018-10-21T02:14:20.915Z,6.13
2018-10-21T02:16:33.137Z,6.15
2018-10-21T02:18:45.312Z,6.15
2018-10-21T02:20:57.554Z,6.11
2018-10-21T02:23:09.727Z,6.07
2018-10-21T02:25:22.016Z,5.95
2018-10-21T02:27:34.379Z,5.88
2018-10-21T02:29:46.575Z,5.82
2018-10-21T02:31:58.835Z,5.77
2018-10-21T02:34:11.012Z,5.73
2018-10-21T02:36:23.222Z,5.65
2018-10-21T02:38:35.395Z,5.63
2018-10-21T02:41:25.380Z,5.66
2018-10-21T02:43:37.683Z,5.64
2018-10-21T02:45:49.942Z,5.60
2018-10-21T02:48:02.159Z,5.59
2018-10-21T02:50:14.376Z,5.57
2018-10-21T02:52:26.600Z,5.59
2018-10-21T02:54:38.862Z,5.61
2018-10-21T02:56:51.369Z,5.62
2018-10-21T02:59:03.993Z,5.65
2018-10-21T03:01:16.203Z,5.66
2018-10-21T03:03:28.391Z,5.59
2018-10-21T03:05:40.627Z,5.50
2018-10-21T03:07:52.902Z,5.48
2018-10-21T03:10:05.147Z,5.49
2018-10-21T03:12:17.402Z,5.46
2018-10-21T03:14:29.607Z,5.49
2018-10-21T03:16:41.987Z,5.52
2018-10-21T03:18:54.194Z,5.52
2018-10-21T03:21:06.460Z,5.52
2018-10-21T03:23:18.587Z,5.53
2018-10-21T03:25:30.792Z,5.52
2018-10-21T03:27:42.979Z,5.50
2018-10-21T03:29:55.219Z,5.44
2018-10-21T03:32:07.392Z,5.33
2018-10-21T03:34:19.589Z,5.23
2018-10-21T03:36:31.819Z,5.13
2018-10-21T03:38:44.022Z,5.11
2018-10-21T03:40:56.315Z,5.09
2018-10-21T03:43:08.577Z,5.09
2018-10-21T03:45:20.768Z,5.09
2018-10-21T03:47:32.944Z,5.15
2018-10-21T03:49:45.140Z,5.18
2018-10-21T03:51:57.343Z,5.24
2018-10-21T03:54:10.471Z,5.29
2018-10-21T03:56:22.656Z,5.35
2018-10-21T03:58:34.824Z,5.34
2018-10-21T04:00:47.071Z,5.38
2018-10-21T04:02:59.266Z,5.42
2018-10-21T04:05:11.759Z,5.38
2018-10-21T04:07:23.980Z,5.25
2018-10-21T04:09:36.218Z,5.16
2018-10-21T04:11:48.394Z,5.06
2018-10-21T04:14:01.554Z,5.01
2018-10-21T04:16:13.807Z,4.97
2018-10-21T04:18:26.023Z,4.87
2018-10-21T04:20:38.252Z,4.84
2018-10-21T04:22:53.546Z,4.83
2018-10-21T04:25:06.682Z,4.83
2018-10-21T04:27:18.870Z,4.85
2018-10-21T04:29:31.052Z,4.83
2018-10-21T04:31:43.251Z,4.78
2018-10-21T04:33:55.505Z,4.79
2018-10-21T04:36:09.392Z,4.83
2018-10-21T04:38:44.002Z,4.82
2018-10-21T04:40:56.254Z,4.82
2018-10-21T04:43:08.469Z,4.85
2018-10-21T04:45:21.760Z,4.80
2018-10-21T04:47:34.019Z,4.82
2018-10-21T04:49:46.232Z,4.84
2018-10-21T04:51:58.458Z,4.86
2018-10-21T04:54:10.651Z,4.90
2018-10-21T04:56:22.878Z,4.92
2018-10-21T04:58:35.066Z,4.91
2018-10-21T05:00:47.355Z,4.95
2018-10-21T05:02:59.452Z,4.95
2018-10-21T05:05:12.749Z,4.99
2018-10-21T05:07:25.015Z,4.98
2018-10-21T05:09:37.196Z,4.96
2018-10-21T05:11:49.407Z,4.92
2018-10-21T05:14:01.592Z,4.91
2018-10-21T05:16:13.806Z,4.90
2018-10-21T05:18:26.017Z,4.93
2018-10-21T05:20:38.202Z,5.01
2018-10-21T05:22:50.394Z,5.06
2018-10-21T05:25:02.597Z,5.14
2018-10-21T05:27:14.847Z,5.15
2018-10-21T05:29:27.067Z,5.17
2018-10-21T05:31:39.258Z,5.21
2018-10-21T05:33:51.742Z,5.30
2018-10-21T05:36:04.192Z,5.38
2018-10-21T05:38:16.411Z,5.41
2018-10-21T05:40:28.702Z,5.40
2018-10-21T05:42:41.256Z,5.43
2018-10-21T05:44:54.390Z,5.50
2018-10-21T05:47:06.614Z,5.57
2018-10-21T05:49:18.860Z,5.64
2018-10-21T05:51:31.084Z,5.70
2018-10-21T05:53:43.297Z,5.80
2018-10-21T05:55:55.510Z,5.83
2018-10-21T05:58:07.801Z,5.91
2018-10-21T06:00:20.312Z,5.96
2018-10-21T06:02:32.526Z,6.03
2018-10-21T06:04:44.726Z,6.07
2018-10-21T06:06:56.935Z,6.12
2018-10-21T06:09:10.594Z,6.08
2018-10-21T06:11:23.788Z,6.02
2018-10-21T06:13:35.951Z,6.00
2018-10-21T06:15:48.182Z,6.00
2018-10-21T06:18:00.860Z,6.09
2018-10-21T06:20:18.013Z,6.16
2018-10-21T06:22:35.642Z,6.25
2018-10-21T06:24:47.856Z,6.28
2018-10-21T06:27:00.104Z,6.32
2018-10-21T06:29:12.395Z,6.39
2018-10-21T06:31:24.631Z,6.49
2018-10-21T06:33:36.820Z,6.60
2018-10-21T06:35:49.129Z,6.65
2018-10-21T06:38:01.334Z,6.71
2018-10-21T06:40:13.595Z,6.78
2018-10-21T06:42:28.914Z,6.84
2018-10-21T06:44:41.144Z,6.89
2018-10-21T06:46:53.360Z,6.94
2018-10-21T06:49:05.588Z,7.04
2018-10-21T06:51:17.775Z,7.09
2018-10-21T06:53:30.891Z,7.16
2018-10-21T06:55:43.442Z,7.24
2018-10-21T06:57:55.675Z,7.33
2018-10-21T07:00:08.363Z,7.38
2018-10-21T07:02:20.567Z,7.46
2018-10-21T07:04:32.794Z,7.54
2018-10-21T07:06:45.983Z,7.62
2018-10-21T07:08:59.650Z,7.69
2018-10-21T07:11:11.899Z,7.77
2018-10-21T07:13:24.129Z,7.83
2018-10-21T07:15:36.350Z,7.95
2018-10-21T07:17:48.588Z,8.03
2018-10-21T07:20:00.831Z,8.11
2018-10-21T07:22:13.120Z,8.22
2018-10-21T07:24:25.282Z,8.35
2018-10-21T07:26:40.252Z,8.50
2018-10-21T07:28:52.492Z,8.64
2018-10-21T07:31:04.833Z,8.74
2018-10-21T07:33:17.059Z,8.87
2018-10-21T07:35:30.124Z,9.02
2018-10-21T07:37:43.119Z,9.13
2018-10-21T07:39:55.364Z,9.22
2018-10-21T07:42:07.589Z,9.29
2018-10-21T07:44:19.859Z,9.34
2018-10-21T07:46:32.188Z,9.37
2018-10-21T07:48:48.304Z,9.37
2018-10-21T07:51:00.548Z,9.39
2018-10-21T07:53:12.871Z,9.45
2018-10-21T07:55:25.180Z,9.50
2018-10-21T07:57:39.227Z,9.66
2018-10-21T07:59:51.501Z,9.79
2018-10-21T08:02:05.543Z,9.95
2018-10-21T08:04:18.780Z,10.06
2018-10-21T08:06:42.335Z,10.16
2018-10-21T08:08:54.598Z,10.25
2018-10-21T08:11:06.918Z,10.36
2018-10-21T08:13:20.519Z,10.55
2018-10-21T08:15:34.693Z,10.88
2018-10-21T08:17:46.903Z,11.05
2018-10-21T08:19:59.156Z,11.08
2018-10-21T08:22:11.453Z,11.08
2018-10-21T08:24:23.623Z,11.16
2018-10-21T08:26:36.746Z,11.20
2018-10-21T08:28:48.942Z,11.11
2018-10-21T08:31:02.025Z,11.09
2018-10-21T08:33:14.278Z,11.39
2018-10-21T08:35:26.542Z,11.93
2018-10-21T08:37:38.775Z,12.56
2018-10-21T08:39:51.162Z,12.96
2018-10-21T08:42:03.438Z,13.05
2018-10-21T08:44:15.672Z,13.23
2018-10-21T08:46:27.936Z,13.33
2018-10-21T08:48:40.243Z,13.31
2018-10-21T08:50:52.506Z,13.25
2018-10-21T08:53:04.826Z,13.16
2018-10-21T08:55:17.141Z,13.08
2018-10-21T08:57:29.380Z,13.30
2018-10-21T08:59:41.764Z,13.59
2018-10-21T09:01:54.295Z,13.84
2018-10-21T09:04:11.495Z,14.03
2018-10-21T09:06:23.764Z,14.13
2018-10-21T09:08:35.991Z,14.27
2018-10-21T09:10:48.266Z,14.45
2018-10-21T09:13:00.606Z,14.76
2018-10-21T09:15:14.769Z,14.95
2018-10-21T09:17:26.980Z,15.21
2018-10-21T09:19:39.208Z,15.35
2018-10-21T09:21:51.500Z,15.45
2018-10-21T09:24:04.065Z,15.53
2018-10-21T09:26:16.286Z,15.43
2018-10-21T09:28:28.531Z,15.36
2018-10-21T09:30:41.767Z,15.42
2018-10-21T09:32:54.877Z,15.60
2018-10-21T09:35:08.998Z,15.75
2018-10-21T09:37:21.248Z,15.83
2018-10-21T09:39:33.538Z,15.75
2018-10-21T09:41:46.680Z,15.70
2018-10-21T09:43:58.920Z,15.78
2018-10-21T09:46:11.282Z,15.81
2018-10-21T09:48:25.460Z,16.01
2018-10-21T09:50:38.614Z,16.11
2018-10-21T09:52:50.894Z,16.29
2018-10-21T09:55:03.300Z,16.43
2018-10-21T09:57:15.558Z,16.50
2018-10-21T09:59:29.663Z,16.51
2018-10-21T10:01:47.651Z,16.52
2018-10-21T10:03:59.974Z,16.34
2018-10-21T10:06:12.214Z,16.26
2018-10-21T10:08:24.483Z,16.25
2018-10-21T10:10:38.561Z,16.13
2018-10-21T10:12:50.775Z,16.18
2018-10-21T10:15:03.091Z,16.27
2018-10-21T10:17:15.422Z,16.16
2018-10-21T10:19:27.696Z,16.11
2018-10-21T10:21:39.977Z,16.06
2018-10-21T10:23:52.276Z,16.16
2018-10-21T10:26:04.543Z,16.31
2018-10-21T10:28:17.642Z,16.33
2018-10-21T10:30:29.883Z,16.39
2018-10-21T10:32:42.928Z,16.28
2018-10-21T10:34:55.189Z,16.42
2018-10-21T10:37:07.492Z,16.63
2018-10-21T10:39:19.691Z,16.76
2018-10-21T10:41:31.989Z,16.82
2018-10-21T10:43:47.957Z,16.85
2018-10-21T10:46:06.175Z,16.87
2018-10-21T10:48:18.383Z,16.92
2018-10-21T10:50:34.597Z,16.88
2018-10-21T10:52:46.884Z,16.89
2018-10-21T10:54:59.169Z,16.93
2018-10-21T10:57:11.383Z,17.03
2018-10-21T10:59:23.640Z,17.08
2018-10-21T11:01:35.873Z,17.14
2018-10-21T11:03:48.954Z,17.20
2018-10-21T11:06:01.206Z,17.22
2018-10-21T11:08:13.446Z,17.08
2018-10-21T11:10:25.757Z,17.00
2018-10-21T11:12:37.971Z,16.96
2018-10-21T11:14:57.060Z,17.04
2018-10-21T11:17:09.329Z,17.10
2018-10-21T11:19:23.128Z,17.13
2018-10-21T11:21:35.411Z,17.02
2018-10-21T11:23:47.654Z,17.12
2018-10-21T11:26:02.000Z,17.23
2018-10-21T11:28:14.334Z,17.18
2018-10-21T11:30:26.517Z,17.16
2018-10-21T11:32:38.783Z,17.07
2018-10-21T11:34:51.051Z,17.07
2018-10-21T11:37:03.298Z,17.15
2018-10-21T11:39:15.527Z,17.24
2018-10-21T11:41:27.810Z,17.34
2018-10-21T11:43:40.074Z,17.42
2018-10-21T11:45:52.301Z,17.44
2018-10-21T11:48:04.581Z,17.41
2018-10-21T11:50:16.828Z,17.37
2018-10-21T11:52:29.060Z,17.32
2018-10-21T11:54:41.332Z,17.29
2018-10-21T11:56:53.642Z,17.26
2018-10-21T11:59:06.784Z,17.13
2018-10-21T12:01:19.101Z,16.93
2018-10-21T12:03:32.313Z,16.80
2018-10-21T12:05:44.636Z,16.83
2018-10-21T12:07:56.919Z,16.80
2018-10-21T12:10:09.294Z,16.80
2018-10-21T12:12:21.560Z,16.79
2018-10-21T12:14:33.806Z,16.85
2018-10-21T12:16:46.094Z,16.81
2018-10-21T12:19:03.286Z,16.81
2018-10-21T12:21:15.556Z,16.81
2018-10-21T12:23:27.829Z,16.81
2018-10-21T12:25:40.045Z,16.82
2018-10-21T12:27:52.333Z,16.83
2018-10-21T12:30:05.864Z,16.82
2018-10-21T12:32:18.134Z,16.74
2018-10-21T12:34:30.426Z,16.75
2018-10-21T12:36:42.745Z,16.71
2018-10-21T12:38:55.008Z,16.70
2018-10-21T12:41:07.545Z,16.76
2018-10-21T12:43:19.724Z,16.80
2018-10-21T12:45:32.016Z,16.86
2018-10-21T12:47:44.279Z,16.85
2018-10-21T12:49:56.560Z,16.78
2018-10-21T12:52:08.874Z,16.74
2018-10-21T12:54:21.101Z,16.78
2018-10-21T12:56:33.316Z,16.77
2018-10-21T12:58:45.600Z,16.77
2018-10-21T13:00:57.857Z,16.78
2018-10-21T13:03:10.120Z,16.81
2018-10-21T13:05:22.395Z,16.80
2018-10-21T13:07:34.675Z,16.81
2018-10-21T13:09:46.913Z,16.83
2018-10-21T13:11:59.177Z,16.83
2018-10-21T13:14:11.432Z,16.86
2018-10-21T13:16:23.779Z,16.88
2018-10-21T13:18:36.026Z,16.86
2018-10-21T13:20:48.322Z,16.88
2018-10-21T13:23:00.547Z,16.85
2018-10-21T13:25:12.897Z,16.83
2018-10-21T13:27:25.047Z,16.88
2018-10-21T13:29:37.333Z,16.92
2018-10-21T13:31:49.551Z,16.92
2018-10-21T13:34:02.654Z,16.87
2018-10-21T13:36:15.952Z,16.82
2018-10-21T13:38:28.207Z,16.86
2018-10-21T13:40:40.537Z,16.86
2018-10-21T13:42:52.817Z,16.83
2018-10-21T13:45:05.570Z,16.78
2018-10-21T13:47:17.950Z,16.71
2018-10-21T13:49:30.178Z,16.77
2018-10-21T13:51:44.400Z,16.72
2018-10-21T13:53:56.546Z,16.68
2018-10-21T13:56:08.774Z,16.68
2018-10-21T13:58:21.003Z,16.73
2018-10-21T14:00:33.386Z,16.72
2018-10-21T14:02:45.649Z,16.64
2018-10-21T14:04:57.896Z,16.63
2018-10-21T14:07:10.231Z,16.58
2018-10-21T14:09:23.414Z,16.61
2018-10-21T14:11:35.687Z,16.62
2018-10-21T14:13:47.965Z,16.56
2018-10-21T14:16:00.331Z,16.58
2018-10-21T14:18:12.481Z,16.59
2018-10-21T14:20:24.711Z,16.59
2018-10-21T14:22:42.791Z,16.60
2018-10-21T14:24:55.078Z,16.58
2018-10-21T14:27:07.365Z,16.52
2018-10-21T14:29:19.841Z,16.53
2018-10-21T14:31:32.040Z,16.51
2018-10-21T14:33:44.345Z,16.54
2018-10-21T14:35:59.563Z,16.51
2018-10-21T14:38:12.908Z,16.50
2018-10-21T14:40:25.046Z,16.50
2018-10-21T14:42:38.572Z,16.48
2018-10-21T14:44:50.914Z,16.43
2018-10-21T14:47:03.260Z,16.47
2018-10-21T14:49:15.508Z,16.50
2018-10-21T14:51:27.747Z,16.47
2018-10-21T14:53:39.996Z,16.44
2018-10-21T14:55:52.252Z,16.43
2018-10-21T14:58:05.452Z,16.50
2018-10-21T15:00:17.800Z,16.49
2018-10-21T15:02:29.986Z,16.39
2018-10-21T15:04:42.282Z,16.38
2018-10-21T15:06:54.722Z,16.39
2018-10-21T15:09:11.100Z,16.39
2018-10-21T15:11:23.367Z,16.37
2018-10-21T15:13:35.659Z,16.38
2018-10-21T15:15:48.035Z,16.39
2018-10-21T15:18:05.323Z,16.33
2018-10-21T15:20:17.561Z,16.33
2018-10-21T15:22:29.803Z,16.34
2018-10-21T15:24:42.031Z,16.47
2018-10-21T15:26:54.253Z,16.56
2018-10-21T15:29:06.495Z,16.58
2018-10-21T15:31:18.723Z,16.51
2018-10-21T15:33:31.066Z,16.45
2018-10-21T15:35:43.347Z,16.35
2018-10-21T15:37:55.599Z,16.26
2018-10-21T15:40:08.860Z,16.17
2018-10-21T15:42:21.057Z,16.13
2018-10-21T15:44:33.337Z,16.10
2018-10-21T15:46:45.646Z,16.08
2018-10-21T15:48:57.941Z,16.04
2018-10-21T15:51:10.933Z,15.95
2018-10-21T15:53:23.155Z,15.87
2018-10-21T15:55:35.494Z,15.76
2018-10-21T15:57:47.913Z,15.67
2018-10-21T15:59:59.970Z,15.56
2018-10-21T16:02:12.382Z,15.52
2018-10-21T16:04:25.683Z,15.47
2018-10-21T16:06:37.932Z,15.36
2018-10-21T16:08:50.216Z,15.28
2018-10-21T16:11:02.468Z,15.20
2018-10-21T16:13:17.497Z,15.14
2018-10-21T16:15:29.750Z,15.07
2018-10-21T16:17:42.563Z,14.99
2018-10-21T16:19:54.888Z,14.94
2018-10-21T16:22:07.550Z,14.90
2018-10-21T16:24:19.810Z,14.86
2018-10-21T16:26:32.195Z,14.79
2018-10-21T16:28:44.385Z,14.65
2018-10-21T16:30:56.599Z,14.48
2018-10-21T16:33:08.864Z,14.27
2018-10-21T16:35:21.186Z,14.04
2018-10-21T16:37:33.554Z,13.83
2018-10-21T16:39:45.806Z,13.67
2018-10-21T16:41:58.179Z,13.57
2018-10-21T16:44:10.458Z,13.45
2018-10-21T16:46:22.809Z,13.32
2018-10-21T16:48:35.113Z,13.20
2018-10-21T16:50:47.393Z,13.11
2018-10-21T16:52:59.737Z,13.03
2018-10-21T16:55:12.639Z,12.98
2018-10-21T16:57:24.979Z,12.93
2018-10-21T16:59:37.318Z,12.86
2018-10-21T17:01:49.475Z,12.75
2018-10-21T17:04:02.018Z,12.65
2018-10-21T17:06:14.278Z,12.59
2018-10-21T17:08:26.689Z,12.49
2018-10-21T17:10:39.183Z,12.33
2018-10-21T17:12:51.188Z,12.14
2018-10-21T17:15:03.624Z,12.01
2018-10-21T17:17:16.483Z,11.94
2018-10-21T17:19:28.694Z,11.81
2018-10-21T17:21:40.944Z,11.72
2018-10-21T17:23:53.254Z,11.68
2018-10-21T17:26:05.560Z,11.60
2018-10-21T17:28:17.969Z,11.46
2018-10-21T17:30:30.271Z,11.36
2018-10-21T17:32:42.871Z,11.29
2018-10-21T17:34:55.100Z,11.21
2018-10-21T17:37:07.395Z,11.17
2018-10-21T17:39:19.669Z,11.04
2018-10-21T17:41:31.902Z,10.88
2018-10-21T17:43:44.204Z,10.75
2018-10-21T17:45:56.497Z,10.69
2018-10-21T17:48:08.710Z,10.60
2018-10-21T17:50:21.039Z,10.59
2018-10-21T17:52:33.374Z,10.63
2018-10-21T17:54:45.640Z,10.60
2018-10-21T17:56:58.969Z,10.53
2018-10-21T17:59:11.476Z,10.40
2018-10-21T18:01:24.109Z,10.34
2018-10-21T18:03:36.375Z,10.27
2018-10-21T18:05:48.615Z,10.24
2018-10-21T18:08:00.874Z,10.18
2018-10-21T18:10:13.342Z,10.12
2018-10-21T18:12:25.575Z,10.13
2018-10-21T18:14:37.807Z,10.15
2018-10-21T18:16:50.114Z,10.06
2018-10-21T18:19:02.569Z,9.93
2018-10-21T18:21:15.530Z,9.86
2018-10-21T18:23:27.795Z,9.80
2018-10-21T18:25:40.029Z,9.76
2018-10-21T18:27:52.328Z,9.73
2018-10-21T18:30:05.884Z,9.65
2018-10-21T18:32:18.389Z,9.64
2018-10-21T18:34:31.505Z,9.59
2018-10-21T18:36:43.884Z,9.49
2018-10-21T18:38:56.180Z,9.44
2018-10-21T18:41:08.663Z,9.46
2018-10-21T18:43:20.837Z,9.53
2018-10-21T18:45:33.006Z,9.51
2018-10-21T18:47:45.283Z,9.48
2018-10-21T18:49:57.540Z,9.44
2018-10-21T18:52:10.168Z,9.39
2018-10-21T18:54:22.417Z,9.23
2018-10-21T18:56:34.735Z,9.09
2018-10-21T18:58:47.062Z,9.00
2018-10-21T19:00:59.343Z,8.95
2018-10-21T19:03:11.579Z,8.94
2018-10-21T19:05:23.891Z,8.97
2018-10-21T19:07:36.390Z,8.92
2018-10-21T19:09:48.672Z,8.88
2018-10-21T19:12:00.944Z,8.82
2018-10-21T19:14:13.228Z,8.78
2018-10-21T19:16:25.505Z,8.77
2018-10-21T19:18:37.715Z,8.72
2018-10-21T19:20:49.965Z,8.65
2018-10-21T19:23:02.264Z,8.66
2018-10-21T19:25:15.648Z,8.62
2018-10-21T19:27:27.794Z,8.57
2018-10-21T19:29:40.075Z,8.49
2018-10-21T19:31:52.349Z,8.46
2018-10-21T19:34:05.036Z,8.39
2018-10-21T19:36:17.307Z,8.35
2018-10-21T19:38:29.556Z,8.33
2018-10-21T19:40:41.834Z,8.36
2018-10-21T19:42:54.112Z,8.39
2018-10-21T19:45:07.314Z,8.41
2018-10-21T19:47:19.614Z,8.43
2018-10-21T19:49:31.830Z,8.41
2018-10-21T19:51:44.144Z,8.39
2018-10-21T19:53:56.379Z,8.25
2018-10-21T19:56:08.635Z,8.18
2018-10-21T19:58:20.936Z,8.11
2018-10-21T20:00:33.213Z,8.09
2018-10-21T20:02:45.821Z,8.07
2018-10-21T20:04:58.079Z,8.07
2018-10-21T20:07:10.493Z,8.07
2018-10-21T20:09:22.684Z,8.04
2018-10-21T20:11:34.959Z,8.01
2018-10-21T20:13:47.199Z,7.95
2018-10-21T20:15:59.592Z,7.89
2018-10-21T20:18:11.775Z,7.86
2018-10-21T20:20:24.026Z,7.84
2018-10-21T20:22:36.450Z,7.78
2018-10-21T20:24:48.754Z,7.73
2018-10-21T20:27:01.027Z,7.67
2018-10-21T20:29:13.274Z,7.64
2018-10-21T20:31:25.620Z,7.59
2018-10-21T20:33:37.892Z,7.58
2018-10-21T20:35:50.168Z,7.52
2018-10-21T20:38:02.523Z,7.49
2018-10-21T20:40:14.723Z,7.48
2018-10-21T20:42:26.997Z,7.43
2018-10-21T20:44:39.334Z,7.43
2018-10-21T20:46:51.566Z,7.41
2018-10-21T20:49:03.940Z,7.43
2018-10-21T20:51:16.219Z,7.45
2018-10-21T20:53:28.471Z,7.43
2018-10-21T20:55:40.782Z,7.41
2018-10-21T20:57:53.077Z,7.43
2018-10-21T21:00:05.388Z,7.43
2018-10-21T21:02:17.570Z,7.47
2018-10-21T21:04:29.796Z,7.50
2018-10-21T21:06:42.028Z,7.51
2018-10-21T21:08:54.249Z,7.52
2018-10-21T21:11:07.159Z,7.54
2018-10-21T21:13:19.364Z,7.55
2018-10-21T21:15:31.667Z,7.58
2018-10-21T21:17:43.915Z,7.61
2018-10-21T21:19:56.112Z,7.60
2018-10-21T21:22:08.448Z,7.61
2018-10-21T21:24:20.615Z,7.60
2018-10-21T21:26:32.911Z,7.58
2018-10-21T21:28:45.147Z,7.54
2018-10-21T21:30:57.399Z,7.49
2018-10-21T21:33:09.655Z,7.40
2018-10-21T21:35:21.929Z,7.29
2018-10-21T21:37:34.241Z,7.17
2018-10-21T21:39:46.521Z,7.08
2018-10-21T21:41:58.762Z,7.04
2018-10-21T21:44:11.042Z,7.01
2018-10-21T21:46:23.316Z,7.01
2018-10-21T21:48:35.560Z,7.05
2018-10-21T21:50:47.782Z,7.06
2018-10-21T21:53:00.076Z,7.08
2018-10-21T21:55:12.353Z,7.06
2018-10-21T21:57:24.614Z,6.96
2018-10-21T21:59:36.845Z,6.85
2018-10-21T22:01:49.027Z,6.71
2018-10-21T22:04:01.353Z,6.60
2018-10-21T22:06:13.632Z,6.47
2018-10-21T22:08:25.859Z,6.42
2018-10-21T22:10:38.133Z,6.35
2018-10-21T22:12:50.417Z,6.36
2018-10-21T22:15:02.666Z,6.33
2018-10-21T22:17:14.880Z,6.32
2018-10-21T22:19:27.107Z,6.24
2018-10-21T22:21:39.391Z,6.19
2018-10-21T22:23:51.710Z,6.17
2018-10-21T22:26:04.036Z,6.21
2018-10-21T22:28:16.851Z,6.18
2018-10-21T22:30:28.999Z,6.20
2018-10-21T22:32:41.232Z,6.26
2018-10-21T22:34:53.489Z,6.32
2018-10-21T22:37:05.705Z,6.35
2018-10-21T22:39:17.941Z,6.38
2018-10-21T22:41:30.151Z,6.48
2018-10-21T22:43:42.468Z,6.52
2018-10-21T22:45:54.719Z,6.56
2018-10-21T22:48:06.984Z,6.55
2018-10-21T22:50:19.242Z,6.53
2018-10-21T22:52:31.492Z,6.56
2018-10-21T22:54:43.712Z,6.58
2018-10-21T22:56:55.917Z,6.59
2018-10-21T22:59:08.121Z,6.57
2018-10-21T23:01:20.356Z,6.58
2018-10-21T23:03:32.591Z,6.61
2018-10-21T23:05:44.826Z,6.63
2018-10-21T23:07:57.014Z,6.64
2018-10-21T23:10:09.266Z,6.65
2018-10-21T23:12:21.488Z,6.67
2018-10-21T23:14:33.728Z,6.69
2018-10-21T23:16:45.938Z,6.67
2018-10-21T23:19:09.055Z,6.65
2018-10-21T23:21:21.259Z,6.67
2018-10-21T23:23:33.433Z,6.67
2018-10-21T23:25:45.638Z,6.68
2018-10-21T23:27:57.888Z,6.69
2018-10-21T23:30:10.161Z,6.71
2018-10-21T23:32:22.342Z,6.75
2018-10-21T23:34:34.575Z,6.78
2018-10-21T23:36:46.774Z,6.80
2018-10-21T23:38:59.965Z,6.82
2018-10-21T23:41:12.194Z,6.84
2018-10-21T23:43:24.493Z,6.86
2018-10-21T23:45:36.706Z,6.87
2018-10-21T23:47:48.947Z,6.86
2018-10-21T23:50:01.152Z,6.85
2018-10-21T23:52:13.461Z,6.81
2018-10-21T23:54:25.702Z,6.81
2018-10-21T23:56:38.157Z,6.81
2018-10-21T23:58:50.391Z,6.81
